Fillmore, Indiana
Current Conditions -  °F | °C
As of 4:35 PM on Thursday 23 Oct 2014 (Local Time) from K4I7 Reporting Station
Clear Clear  
Wind Chill: 57°   Ceiling: Unl
Heat Index: 57°   Visibility: 10mi
Dew Point: 41°   Wind: 0mph
Humidity: 55%   Direction: NA
Pressure: 30.15"   Gusts: NA
Location:  39.67°N, 86.75°W
Report Text: K4I7 232035Z AUTO 00000KT 10SM CLR 14/05 A3015 RMK AO2
Loading
Personal Weather Stations






























Interactive Weather Map New forecast layout! Learn more

10-Day Weather Forecast

Advertisements
Track Severe Weather on mobile